createdAt,value
2022-08-22T00:04:37.525Z,22.75
2022-08-22T00:10:02.179Z,23.13
2022-08-22T00:15:42.638Z,23.43
2022-08-22T00:21:12.820Z,23.60
2022-08-22T00:26:45.408Z,23.50
2022-08-22T00:32:08.676Z,23.45
2022-08-22T00:37:51.103Z,23.39
2022-08-22T00:43:35.452Z,23.15
2022-08-22T00:49:13.973Z,22.93
2022-08-22T00:55:10.293Z,22.88
2022-08-22T01:00:23.237Z,22.89
2022-08-22T01:05:58.177Z,22.78
2022-08-22T01:11:26.464Z,23.10
2022-08-22T01:17:11.824Z,23.48
2022-08-22T01:23:14.698Z,23.58
2022-08-22T01:28:37.366Z,22.00
2022-08-22T01:34:36.559Z,21.22
2022-08-22T01:40:18.914Z,22.39
2022-08-22T01:45:57.701Z,22.64
2022-08-22T01:51:57.173Z,22.72
2022-08-22T01:57:09.602Z,22.56
2022-08-22T02:02:53.560Z,22.60
2022-08-22T02:08:21.839Z,22.83
2022-08-22T02:14:00.973Z,22.83
2022-08-22T02:19:10.557Z,22.86
2022-08-22T02:24:26.243Z,22.89
2022-08-22T02:29:51.020Z,22.75
2022-08-22T02:35:49.925Z,22.80
2022-08-22T02:41:36.715Z,22.72
2022-08-22T02:47:29.328Z,22.19
2022-08-22T02:52:43.486Z,21.77
2022-08-22T02:58:25.245Z,21.62
2022-08-22T03:03:39.210Z,21.48
2022-08-22T03:09:30.151Z,21.10
2022-08-22T03:15:19.288Z,20.88
2022-08-22T03:21:09.963Z,20.82
2022-08-22T03:26:28.651Z,20.69
2022-08-22T03:31:33.689Z,20.60
2022-08-22T03:36:38.539Z,20.58
2022-08-22T03:42:21.260Z,20.57
2022-08-22T03:48:04.468Z,20.58
2022-08-22T03:53:47.162Z,20.77
2022-08-22T03:59:02.798Z,20.81
2022-08-22T04:04:25.968Z,20.77
2022-08-22T04:09:53.235Z,20.72
2022-08-22T04:15:12.116Z,20.71
2022-08-22T04:20:51.549Z,20.69
2022-08-22T04:26:08.561Z,20.76
2022-08-22T04:31:27.896Z,20.79
2022-08-22T04:36:51.339Z,20.71
2022-08-22T04:42:33.454Z,20.78
2022-08-22T04:48:20.760Z,20.87
2022-08-22T04:53:50.596Z,21.53
2022-08-22T04:59:18.424Z,22.38
2022-08-22T05:04:33.110Z,22.17
2022-08-22T05:09:43.718Z,22.01
2022-08-22T05:14:58.908Z,21.86
2022-08-22T05:20:14.208Z,22.21
2022-08-22T05:25:42.301Z,23.01
2022-08-22T05:30:49.824Z,22.51
2022-08-22T05:36:08.769Z,22.93
2022-08-22T05:41:24.223Z,23.57
2022-08-22T05:46:34.029Z,23.82
2022-08-22T05:51:51.260Z,24.16
2022-08-22T05:57:10.650Z,24.39
2022-08-22T06:02:21.168Z,24.34
2022-08-22T06:07:51.480Z,24.00
2022-08-22T06:13:03.607Z,23.32
2022-08-22T06:18:15.870Z,23.00
2022-08-22T06:23:31.801Z,22.76
2022-08-22T06:28:55.430Z,22.52
2022-08-22T06:34:04.296Z,22.41
2022-08-22T06:39:31.600Z,22.23
2022-08-22T06:45:12.779Z,22.16
2022-08-22T06:50:43.966Z,22.22
2022-08-22T06:55:57.488Z,22.28
2022-08-22T07:01:14.920Z,22.27
2022-08-22T07:06:37.701Z,22.34
2022-08-22T07:11:45.403Z,22.53
2022-08-22T07:17:02.634Z,22.73
2022-08-22T07:22:30.407Z,22.86
2022-08-22T07:28:15.878Z,23.46
2022-08-22T07:33:41.009Z,23.55
2022-08-22T07:39:13.891Z,23.51
2022-08-22T07:44:24.942Z,24.09
2022-08-22T07:49:51.253Z,24.07
2022-08-22T07:55:20.640Z,24.35
2022-08-22T08:00:29.421Z,24.62
2022-08-22T08:05:38.321Z,24.34
2022-08-22T08:10:43.326Z,24.30
2022-08-22T08:15:50.181Z,24.93
2022-08-22T08:21:04.529Z,25.03
2022-08-22T08:26:17.944Z,24.90
2022-08-22T08:31:43.145Z,24.73
2022-08-22T08:37:24.512Z,24.50
2022-08-22T08:43:21.038Z,24.59
2022-08-22T08:49:12.767Z,24.57
2022-08-22T08:55:19.656Z,24.75
2022-08-22T09:01:08.200Z,24.94
2022-08-22T09:07:03.069Z,25.46
2022-08-22T09:12:21.430Z,25.68
2022-08-22T09:17:28.221Z,25.49
2022-08-22T09:23:02.453Z,25.34
2022-08-22T09:28:17.846Z,25.40
2022-08-22T09:33:32.067Z,25.61
2022-08-22T09:39:06.745Z,25.52
2022-08-22T09:44:34.515Z,25.38
2022-08-22T09:50:12.929Z,25.71
2022-08-22T09:55:42.953Z,25.88
2022-08-22T10:01:09.122Z,25.83
2022-08-22T10:06:25.201Z,25.63
2022-08-22T10:11:50.133Z,25.75
2022-08-22T10:17:12.511Z,25.93
2022-08-22T10:22:57.565Z,25.98
2022-08-22T10:28:43.290Z,26.07
2022-08-22T10:34:13.858Z,26.21
2022-08-22T10:39:29.871Z,26.30
2022-08-22T10:45:23.565Z,26.34
2022-08-22T10:51:04.106Z,26.44
2022-08-22T10:56:22.559Z,26.49
2022-08-22T11:01:49.141Z,26.58
2022-08-22T11:07:22.517Z,26.70
2022-08-22T11:12:43.576Z,27.01
2022-08-22T11:18:24.000Z,27.07
2022-08-22T11:24:05.050Z,26.57
2022-08-22T11:29:27.734Z,27.86
2022-08-22T11:34:51.871Z,26.95
2022-08-22T11:40:14.519Z,27.22
2022-08-22T11:45:31.190Z,28.56
2022-08-22T11:50:56.424Z,27.71
2022-08-22T11:56:40.187Z,27.15
2022-08-22T12:01:56.403Z,27.65
2022-08-22T12:07:28.602Z,28.80
2022-08-22T12:13:04.510Z,27.88
2022-08-22T12:18:30.152Z,27.11
2022-08-22T12:23:50.288Z,26.57
2022-08-22T12:29:59.462Z,27.49
2022-08-22T12:35:29.935Z,28.73
2022-08-22T12:41:12.313Z,27.72
2022-08-22T12:46:46.781Z,26.99
2022-08-22T12:52:12.567Z,26.43
2022-08-22T12:57:50.512Z,26.15
2022-08-22T13:03:10.012Z,26.54
2022-08-22T13:08:42.037Z,28.07
2022-08-22T13:13:56.470Z,27.35
2022-08-22T13:19:14.605Z,27.26
2022-08-22T13:24:39.503Z,27.43
2022-08-22T13:29:58.072Z,27.53
2022-08-22T13:35:05.678Z,27.75
2022-08-22T13:40:22.084Z,27.93
2022-08-22T13:45:30.763Z,27.70
2022-08-22T13:51:08.148Z,27.35
2022-08-22T13:56:34.328Z,27.46
2022-08-22T14:02:00.480Z,27.86
2022-08-22T14:07:06.729Z,28.01
2022-08-22T14:12:19.290Z,28.09
2022-08-22T14:17:42.659Z,28.07
2022-08-22T14:23:03.985Z,27.89
2022-08-22T14:28:27.464Z,27.53
2022-08-22T14:34:10.812Z,27.25
2022-08-22T14:39:50.903Z,26.84
2022-08-22T14:45:10.551Z,26.41
2022-08-22T14:50:56.486Z,26.05
2022-08-22T14:56:12.339Z,25.75
2022-08-22T15:01:26.919Z,25.49
2022-08-22T15:06:54.610Z,25.23
2022-08-22T15:12:01.769Z,25.62
2022-08-22T15:17:11.783Z,27.84
2022-08-22T15:22:28.750Z,28.02
2022-08-22T15:27:43.369Z,27.92
2022-08-22T15:32:49.387Z,28.36
2022-08-22T15:38:06.480Z,27.92
2022-08-22T15:43:35.592Z,28.06
2022-08-22T15:48:43.070Z,28.50
2022-08-22T15:54:24.887Z,29.01
2022-08-22T15:59:53.491Z,29.85
2022-08-22T16:05:16.309Z,30.35
2022-08-22T16:10:23.353Z,30.57
2022-08-22T16:15:52.895Z,30.55
2022-08-22T16:21:19.301Z,30.25
2022-08-22T16:26:33.085Z,29.91
2022-08-22T16:31:57.260Z,29.53
2022-08-22T16:37:04.679Z,29.14
2022-08-22T16:42:14.816Z,28.71
2022-08-22T16:47:37.609Z,28.20
2022-08-22T16:53:02.314Z,27.69
2022-08-22T16:58:59.208Z,27.15
2022-08-22T17:05:22.494Z,26.29
2022-08-22T17:10:51.191Z,25.28
2022-08-22T17:16:41.073Z,24.49
2022-08-22T17:22:07.819Z,23.76
2022-08-22T17:27:40.345Z,23.22
2022-08-22T17:33:03.432Z,22.83
2022-08-22T17:38:19.795Z,24.65
2022-08-22T17:44:15.201Z,24.52
2022-08-22T17:49:34.066Z,23.21
2022-08-22T17:55:02.862Z,22.52
2022-08-22T18:00:19.510Z,23.50
2022-08-22T18:05:46.179Z,24.82
2022-08-22T18:11:17.192Z,23.38
2022-08-22T18:16:46.659Z,22.46
2022-08-22T18:21:56.725Z,23.29
2022-08-22T18:27:29.983Z,25.17
2022-08-22T18:33:01.514Z,23.95
2022-08-22T18:38:21.235Z,22.78
2022-08-22T18:43:42.468Z,22.06
2022-08-22T18:49:13.708Z,22.98
2022-08-22T18:54:37.093Z,25.18
2022-08-22T19:00:21.815Z,25.11
2022-08-22T19:05:42.703Z,23.26
2022-08-22T19:10:55.087Z,22.24
2022-08-22T19:16:21.645Z,22.73
2022-08-22T19:21:57.086Z,24.65
2022-08-22T19:27:21.977Z,23.98
2022-08-22T19:32:47.635Z,22.50
2022-08-22T19:38:05.832Z,22.81
2022-08-22T19:43:42.514Z,24.73
2022-08-22T19:48:53.199Z,24.60
2022-08-22T19:54:02.907Z,22.93
2022-08-22T19:59:23.714Z,21.89
2022-08-22T20:04:50.171Z,22.51
2022-08-22T20:10:15.688Z,24.59
2022-08-22T20:15:26.387Z,25.20
2022-08-22T20:20:58.985Z,23.75
2022-08-22T20:26:04.558Z,22.21
2022-08-22T20:31:24.833Z,22.50
2022-08-22T20:36:30.445Z,24.62
2022-08-22T20:41:46.356Z,25.05
2022-08-22T20:46:58.135Z,23.40
2022-08-22T20:52:22.302Z,22.00
2022-08-22T20:57:27.120Z,22.33
2022-08-22T21:02:36.514Z,24.25
2022-08-22T21:08:02.661Z,25.05
2022-08-22T21:13:38.110Z,24.22
2022-08-22T21:18:54.226Z,22.40
2022-08-22T21:24:10.026Z,22.48
2022-08-22T21:29:13.851Z,24.25
2022-08-22T21:34:43.196Z,24.99
2022-08-22T21:39:53.091Z,23.68
2022-08-22T21:45:27.362Z,22.24
2022-08-22T21:50:38.873Z,23.62
2022-08-22T21:55:47.358Z,24.97
2022-08-22T22:00:57.634Z,24.59
2022-08-22T22:06:06.013Z,22.75
2022-08-22T22:11:16.697Z,22.65
2022-08-22T22:16:28.078Z,24.43
2022-08-22T22:21:32.434Z,25.03
2022-08-22T22:26:36.963Z,23.61
2022-08-22T22:31:44.176Z,22.26
2022-08-22T22:36:48.316Z,23.71
2022-08-22T22:41:52.549Z,24.94
2022-08-22T22:47:05.420Z,24.44
2022-08-22T22:52:11.649Z,22.63
2022-08-22T22:57:19.982Z,22.63
2022-08-22T23:02:32.951Z,24.48
2022-08-22T23:07:39.215Z,25.08
2022-08-22T23:12:44.598Z,24.06
2022-08-22T23:17:49.332Z,22.34
2022-08-22T23:22:54.088Z,23.21
2022-08-22T23:27:58.565Z,24.65
2022-08-22T23:33:03.190Z,24.80
2022-08-22T23:38:07.782Z,23.04
2022-08-22T23:43:11.967Z,22.76
2022-08-22T23:48:16.103Z,24.26
2022-08-22T23:53:22.996Z,24.81
2022-08-22T23:58:27.250Z,24.48
